createdAt,value
2023-03-21T00:00:54.341Z,5.88
2023-03-21T00:03:22.171Z,6.32
2023-03-21T00:05:53.433Z,5.13
2023-03-21T00:08:21.910Z,5.05
2023-03-21T00:10:56.887Z,5.50
2023-03-21T00:13:26.488Z,5.43
2023-03-21T00:16:05.274Z,5.60
2023-03-21T00:18:46.531Z,5.07
2023-03-21T00:21:40.593Z,5.95
2023-03-21T00:24:04.422Z,5.80
2023-03-21T00:26:34.206Z,5.90
2023-03-21T00:29:02.399Z,5.70
2023-03-21T00:31:30.249Z,6.03
2023-03-21T00:33:58.098Z,6.40
2023-03-21T00:36:26.883Z,7.20
2023-03-21T00:38:55.109Z,6.72
2023-03-21T00:41:39.111Z,6.78
2023-03-21T00:44:11.599Z,5.90
2023-03-21T00:46:47.316Z,6.80
2023-03-21T00:49:20.733Z,7.15
2023-03-21T00:51:51.769Z,6.03
2023-03-21T00:54:20.223Z,6.60
2023-03-21T00:56:47.946Z,6.53
2023-03-21T00:59:17.620Z,6.30
2023-03-21T01:01:46.698Z,6.97
2023-03-21T01:04:16.730Z,6.60
2023-03-21T01:06:45.294Z,6.93
2023-03-21T01:09:16.573Z,6.85
2023-03-21T01:11:46.254Z,6.68
2023-03-21T01:14:23.546Z,6.43
2023-03-21T01:16:54.076Z,6.93
2023-03-21T01:19:35.215Z,7.22
2023-03-21T01:22:08.701Z,7.40
2023-03-21T01:24:40.477Z,7.65
2023-03-21T01:27:14.692Z,7.53
2023-03-21T01:29:43.085Z,7.72
2023-03-21T01:32:12.153Z,7.90
2023-03-21T01:34:40.564Z,7.35
2023-03-21T01:37:08.417Z,7.45
2023-03-21T01:39:43.587Z,7.55
2023-03-21T01:42:14.300Z,6.85
2023-03-21T01:44:58.518Z,7.15
2023-03-21T01:47:35.568Z,7.00
2023-03-21T01:50:22.432Z,6.40
2023-03-21T01:52:59.682Z,6.57
2023-03-21T01:55:30.825Z,6.68
2023-03-21T01:58:06.789Z,6.78
2023-03-21T02:00:44.364Z,6.63
2023-03-21T02:03:36.132Z,6.65
2023-03-21T02:06:43.838Z,6.20
2023-03-21T02:09:38.024Z,6.85
2023-03-21T02:12:12.418Z,6.22
2023-03-21T02:14:40.688Z,7.00
2023-03-21T02:17:27.146Z,7.05
2023-03-21T02:20:35.113Z,6.88
2023-03-21T02:23:22.226Z,8.02
2023-03-21T02:26:40.871Z,8.85
2023-03-21T02:29:26.968Z,27.52
2023-03-21T02:32:18.142Z,9.35
2023-03-21T02:35:09.080Z,6.80
2023-03-21T02:37:42.915Z,6.28
2023-03-21T02:40:16.869Z,7.70
2023-03-21T02:43:01.619Z,7.00
2023-03-21T02:45:39.703Z,6.72
2023-03-21T02:48:20.222Z,5.35
2023-03-21T02:50:57.638Z,5.50
2023-03-21T02:53:32.173Z,5.05
2023-03-21T02:56:01.629Z,6.10
2023-03-21T02:58:33.638Z,7.10
2023-03-21T03:01:02.325Z,6.32
2023-03-21T03:03:39.438Z,5.85
2023-03-21T03:06:19.303Z,7.30
2023-03-21T03:09:04.279Z,7.45
2023-03-21T03:11:36.475Z,8.25
2023-03-21T03:15:01.890Z,7.80
2023-03-21T03:17:46.012Z,7.82
2023-03-21T03:20:23.454Z,7.70
2023-03-21T03:22:59.591Z,7.70
2023-03-21T03:25:42.109Z,8.07
2023-03-21T03:28:18.694Z,7.68
2023-03-21T03:31:05.140Z,8.68
2023-03-21T03:33:44.596Z,7.55
2023-03-21T03:36:33.410Z,6.75
2023-03-21T03:39:11.154Z,6.30
2023-03-21T03:44:40.295Z,5.95
2023-03-21T03:47:17.436Z,5.55
2023-03-21T03:50:01.194Z,6.00
2023-03-21T03:52:32.244Z,6.78
2023-03-21T03:55:06.698Z,6.97
2023-03-21T03:57:40.124Z,7.47
2023-03-21T04:00:12.929Z,6.72
2023-03-21T04:02:48.894Z,6.80
2023-03-21T04:05:21.873Z,6.90
2023-03-21T04:07:50.789Z,6.63
2023-03-21T04:10:21.940Z,6.68
2023-03-21T04:12:51.355Z,6.95
2023-03-21T04:15:24.850Z,7.15
2023-03-21T04:18:01.302Z,7.53
2023-03-21T04:20:43.298Z,7.35
2023-03-21T04:23:12.731Z,7.65
2023-03-21T04:25:56.005Z,7.78
2023-03-21T04:28:28.993Z,7.68
2023-03-21T04:31:24.133Z,8.60
2023-03-21T04:33:55.945Z,8.63
2023-03-21T04:36:30.603Z,7.07
2023-03-21T04:39:01.679Z,7.40
2023-03-21T04:41:30.748Z,7.18
2023-03-21T04:43:59.941Z,7.20
2023-03-21T04:46:27.734Z,7.10
2023-03-21T04:48:55.487Z,7.97
2023-03-21T04:51:23.159Z,7.38
2023-03-21T04:53:52.431Z,7.50
2023-03-21T04:56:20.444Z,8.30
2023-03-21T04:58:48.173Z,8.32
2023-03-21T05:01:20.185Z,7.70
2023-03-21T05:03:48.711Z,8.20
2023-03-21T05:06:16.644Z,8.32
2023-03-21T05:08:44.869Z,8.68
2023-03-21T05:11:13.351Z,9.10
2023-03-21T05:13:41.464Z,9.57
2023-03-21T05:16:10.222Z,8.77
2023-03-21T05:18:39.606Z,9.40
2023-03-21T05:21:18.181Z,8.60
2023-03-21T05:23:54.802Z,7.60
2023-03-21T05:26:23.727Z,8.35
2023-03-21T05:31:36.203Z,8.07
2023-03-21T05:34:10.971Z,8.88
2023-03-21T05:36:38.941Z,9.23
2023-03-21T05:39:09.528Z,8.30
2023-03-21T05:41:42.134Z,8.73
2023-03-21T05:44:10.444Z,11.35
2023-03-21T05:46:39.599Z,9.35
2023-03-21T05:49:07.372Z,8.02
2023-03-21T05:51:36.536Z,7.13
2023-03-21T05:54:04.476Z,6.82
2023-03-21T05:56:32.796Z,6.10
2023-03-21T05:59:06.429Z,6.40
2023-03-21T06:01:39.998Z,5.70
2023-03-21T06:04:12.925Z,5.72
2023-03-21T06:06:42.543Z,5.40
2023-03-21T06:09:10.798Z,5.47
2023-03-21T06:11:46.525Z,5.88
2023-03-21T06:14:46.306Z,5.70
2023-03-21T06:17:19.707Z,5.55
2023-03-21T06:19:52.204Z,5.88
2023-03-21T06:22:29.426Z,5.10
2023-03-21T06:24:57.212Z,5.45
2023-03-21T06:27:25.108Z,4.80
2023-03-21T06:29:57.971Z,4.95
2023-03-21T06:32:26.131Z,5.18
2023-03-21T06:34:58.687Z,5.00
2023-03-21T06:37:27.375Z,4.35
2023-03-21T06:39:56.899Z,5.10
2023-03-21T06:42:25.315Z,4.65
2023-03-21T06:44:58.670Z,5.15
2023-03-21T06:47:28.187Z,4.93
2023-03-21T06:49:55.913Z,4.57
2023-03-21T06:52:23.682Z,5.07
2023-03-21T06:54:53.527Z,5.53
2023-03-21T06:57:23.927Z,4.90
2023-03-21T06:59:51.714Z,4.95
2023-03-21T07:02:21.718Z,4.18
2023-03-21T07:05:16.532Z,4.00
2023-03-21T07:07:45.287Z,4.05
2023-03-21T07:10:14.037Z,3.17
2023-03-21T07:12:56.446Z,3.35
2023-03-21T07:15:31.364Z,3.67
2023-03-21T07:17:59.127Z,3.83
2023-03-21T07:20:27.278Z,4.20
2023-03-21T07:22:54.994Z,4.00
2023-03-21T07:25:23.136Z,3.38
2023-03-21T07:27:52.691Z,3.40
2023-03-21T07:30:22.557Z,3.15
2023-03-21T07:32:54.712Z,2.63
2023-03-21T07:35:22.497Z,3.15
2023-03-21T07:37:50.596Z,3.35
2023-03-21T07:40:19.937Z,4.13
2023-03-21T07:42:50.404Z,3.60
2023-03-21T07:45:30.802Z,3.40
2023-03-21T07:47:58.566Z,3.53
2023-03-21T07:50:26.337Z,3.90
2023-03-21T07:52:56.466Z,3.85
2023-03-21T07:55:24.230Z,3.85
2023-03-21T07:57:52.621Z,3.58
2023-03-21T08:00:23.887Z,3.40
2023-03-21T08:02:57.958Z,3.30
2023-03-21T08:05:28.410Z,3.50
2023-03-21T08:07:56.271Z,3.90
2023-03-21T08:10:24.341Z,2.90
2023-03-21T08:12:52.535Z,3.03
2023-03-21T08:15:20.511Z,3.63
2023-03-21T08:17:48.519Z,3.10
2023-03-21T08:20:21.497Z,3.33
2023-03-21T08:22:50.594Z,3.40
2023-03-21T08:25:20.058Z,2.72
2023-03-21T08:27:48.747Z,3.00
2023-03-21T08:30:18.376Z,3.10
2023-03-21T08:32:46.011Z,3.20
2023-03-21T08:35:16.135Z,3.28
2023-03-21T08:37:45.237Z,3.10
2023-03-21T08:40:15.760Z,2.80
2023-03-21T08:42:45.208Z,2.60
2023-03-21T08:45:13.468Z,2.50
2023-03-21T08:47:41.775Z,2.60
2023-03-21T08:50:12.273Z,3.00
2023-03-21T08:52:40.120Z,2.50
2023-03-21T08:55:10.574Z,2.88
2023-03-21T08:57:38.619Z,2.58
2023-03-21T09:00:12.415Z,2.95
2023-03-21T09:02:40.539Z,2.45
2023-03-21T09:05:10.248Z,2.30
2023-03-21T09:07:39.343Z,2.00
2023-03-21T09:10:25.662Z,3.47
2023-03-21T09:12:55.949Z,2.67
2023-03-21T09:15:25.560Z,2.60
2023-03-21T09:17:55.828Z,3.00
2023-03-21T09:20:31.232Z,2.15
2023-03-21T09:23:01.837Z,1.88
2023-03-21T09:25:32.521Z,2.17
2023-03-21T09:28:00.569Z,2.28
2023-03-21T09:30:28.520Z,2.50
2023-03-21T09:32:56.365Z,2.00
2023-03-21T09:35:24.871Z,1.90
2023-03-21T09:37:52.776Z,1.80
2023-03-21T09:40:26.273Z,1.65
2023-03-21T09:43:07.938Z,1.70
2023-03-21T09:45:42.224Z,1.50
2023-03-21T09:48:19.975Z,1.60
2023-03-21T09:50:47.942Z,1.92
2023-03-21T09:53:21.685Z,1.65
2023-03-21T09:55:50.101Z,1.20
2023-03-21T09:58:27.181Z,1.50
2023-03-21T10:01:02.433Z,1.00
2023-03-21T10:03:35.087Z,1.33
2023-03-21T10:06:08.261Z,1.30
2023-03-21T10:08:38.621Z,1.35
2023-03-21T10:11:12.929Z,0.95
2023-03-21T10:13:47.570Z,1.60
2023-03-21T10:16:17.581Z,1.42
2023-03-21T10:18:46.735Z,1.40
2023-03-21T10:21:47.414Z,1.70
2023-03-21T10:24:12.520Z,1.52
2023-03-21T10:26:40.411Z,1.50
2023-03-21T10:29:13.870Z,1.33
2023-03-21T10:31:43.034Z,1.58
2023-03-21T10:34:16.960Z,1.42
2023-03-21T10:36:45.819Z,1.70
2023-03-21T10:39:22.747Z,1.50
2023-03-21T10:41:50.458Z,1.83
2023-03-21T10:44:20.863Z,1.80
2023-03-21T10:46:53.921Z,1.20
2023-03-21T10:49:22.510Z,1.60
2023-03-21T10:51:53.279Z,1.50
2023-03-21T10:54:23.068Z,1.55
2023-03-21T10:56:58.523Z,1.80
2023-03-21T10:59:30.156Z,1.63
2023-03-21T11:01:58.345Z,1.48
2023-03-21T11:04:28.574Z,1.40
2023-03-21T11:06:59.564Z,1.63
2023-03-21T11:09:43.374Z,1.45
2023-03-21T11:12:12.934Z,1.55
2023-03-21T11:14:43.496Z,1.50
2023-03-21T11:17:22.702Z,1.73
2023-03-21T11:19:52.380Z,1.60
2023-03-21T11:22:23.228Z,1.42
2023-03-21T11:24:53.419Z,1.48
2023-03-21T11:27:21.862Z,1.92
2023-03-21T11:29:52.598Z,1.50
2023-03-21T11:32:27.504Z,1.55
2023-03-21T11:34:58.960Z,1.50
2023-03-21T11:37:29.126Z,1.30
2023-03-21T11:40:10.422Z,1.50
2023-03-21T11:42:44.882Z,1.35
2023-03-21T11:45:17.651Z,1.50
2023-03-21T11:47:46.511Z,1.40
2023-03-21T11:50:28.201Z,1.83
2023-03-21T11:53:18.507Z,1.45
2023-03-21T11:55:58.563Z,1.70
2023-03-21T11:58:45.058Z,1.42
2023-03-21T12:01:22.618Z,1.50
2023-03-21T12:04:20.885Z,1.63
2023-03-21T12:06:55.316Z,1.30
2023-03-21T12:09:35.510Z,1.50
2023-03-21T12:12:36.490Z,1.58
2023-03-21T12:15:14.722Z,1.75
2023-03-21T12:17:55.592Z,1.42
2023-03-21T12:20:38.766Z,1.50
2023-03-21T12:23:22.523Z,1.50
2023-03-21T12:25:56.507Z,1.20
2023-03-21T12:28:41.153Z,1.65
2023-03-21T12:31:17.940Z,1.50
2023-03-21T12:33:59.242Z,1.35
2023-03-21T12:36:43.955Z,1.13
2023-03-21T12:39:26.456Z,1.55
2023-03-21T12:42:05.943Z,1.50
2023-03-21T12:44:41.786Z,1.25
2023-03-21T12:47:14.700Z,1.60
2023-03-21T12:49:49.684Z,1.50
2023-03-21T12:52:23.053Z,1.58
2023-03-21T12:54:54.828Z,1.20
2023-03-21T12:57:27.331Z,1.33
2023-03-21T13:00:01.668Z,1.50
2023-03-21T13:02:32.745Z,1.55
2023-03-21T13:05:11.687Z,1.42
2023-03-21T13:07:44.209Z,1.27
2023-03-21T13:10:16.263Z,1.50
2023-03-21T13:13:00.405Z,1.40
2023-03-21T13:15:40.500Z,1.15
2023-03-21T13:18:19.704Z,1.50
2023-03-21T13:20:53.350Z,2.00
2023-03-21T13:23:23.976Z,1.60
2023-03-21T13:25:53.670Z,1.67
2023-03-21T13:28:23.788Z,1.75
2023-03-21T13:30:51.783Z,1.65
2023-03-21T13:33:25.894Z,1.75
2023-03-21T13:36:05.288Z,1.92
2023-03-21T13:38:34.870Z,1.88
2023-03-21T13:41:08.206Z,1.63
2023-03-21T13:43:42.843Z,1.90
2023-03-21T13:46:12.076Z,1.90
2023-03-21T13:48:57.865Z,2.15
2023-03-21T13:51:51.836Z,2.35
2023-03-21T13:54:49.596Z,1.92
2023-03-21T13:57:38.639Z,2.15
2023-03-21T14:00:20.922Z,1.95
2023-03-21T14:02:57.272Z,2.22
2023-03-21T14:05:27.024Z,2.13
2023-03-21T14:08:13.907Z,2.10
2023-03-21T14:10:49.168Z,2.20
2023-03-21T14:13:20.296Z,2.70
2023-03-21T14:15:55.939Z,2.22
2023-03-21T14:18:41.226Z,2.10
2023-03-21T14:21:24.891Z,2.35
2023-03-21T14:24:02.953Z,2.50
2023-03-21T14:26:34.411Z,2.08
2023-03-21T14:29:12.355Z,2.75
2023-03-21T14:31:46.490Z,2.45
2023-03-21T14:34:16.816Z,2.30
2023-03-21T14:36:56.863Z,2.45
2023-03-21T14:39:29.713Z,2.90
2023-03-21T14:42:02.310Z,2.22
2023-03-21T14:44:44.143Z,1.95
2023-03-21T14:47:21.891Z,2.30
2023-03-21T14:49:50.864Z,2.78
2023-03-21T14:52:23.175Z,2.38
2023-03-21T14:54:53.792Z,2.70
2023-03-21T14:57:23.443Z,2.50
2023-03-21T14:59:54.435Z,1.95
2023-03-21T15:02:26.458Z,2.65
2023-03-21T15:04:57.380Z,2.50
2023-03-21T15:07:28.263Z,2.33
2023-03-21T15:09:58.976Z,2.42
2023-03-21T15:12:26.935Z,2.40
2023-03-21T15:14:55.470Z,2.83
2023-03-21T15:17:23.958Z,2.50
2023-03-21T15:19:52.028Z,2.63
2023-03-21T15:22:26.140Z,3.05
2023-03-21T15:27:26.253Z,2.30
2023-03-21T15:29:55.502Z,2.65
2023-03-21T15:32:25.979Z,3.17
2023-03-21T15:34:56.445Z,2.63
2023-03-21T15:37:27.299Z,2.60
2023-03-21T15:39:56.151Z,2.88
2023-03-21T15:42:28.740Z,2.85
2023-03-21T15:44:59.146Z,2.60
2023-03-21T15:47:52.963Z,2.50
2023-03-21T15:50:29.903Z,2.60
2023-03-21T15:53:01.499Z,2.90
2023-03-21T15:55:35.383Z,2.92
2023-03-21T15:58:13.009Z,2.38
2023-03-21T16:00:45.248Z,2.85
2023-03-21T16:03:18.162Z,2.78
2023-03-21T16:06:04.621Z,2.60
2023-03-21T16:08:35.948Z,2.60
2023-03-21T16:11:15.451Z,2.80
2023-03-21T16:13:45.069Z,2.70
2023-03-21T16:16:20.532Z,2.90
2023-03-21T16:18:48.612Z,2.92
2023-03-21T16:21:19.039Z,2.85
2023-03-21T16:23:48.206Z,3.20
2023-03-21T16:26:18.809Z,2.90
2023-03-21T16:28:48.447Z,2.80
2023-03-21T16:31:19.109Z,2.70
2023-03-21T16:33:47.436Z,3.20
2023-03-21T16:36:17.879Z,3.03
2023-03-21T16:38:46.105Z,2.72
2023-03-21T16:41:14.821Z,2.60
2023-03-21T16:43:43.904Z,2.72
2023-03-21T16:46:15.713Z,2.78
2023-03-21T16:48:44.800Z,2.63
2023-03-21T16:51:15.043Z,3.15
2023-03-21T16:53:43.073Z,2.83
2023-03-21T16:56:16.099Z,2.92
2023-03-21T16:58:44.597Z,2.92
2023-03-21T17:01:16.389Z,3.03
2023-03-21T17:03:44.271Z,3.22
2023-03-21T17:06:16.103Z,3.45
2023-03-21T17:08:44.244Z,3.33
2023-03-21T17:11:12.563Z,3.65
2023-03-21T17:13:40.516Z,3.40
2023-03-21T17:16:08.816Z,3.05
2023-03-21T17:18:38.073Z,3.90
2023-03-21T17:21:13.064Z,3.15
2023-03-21T17:23:41.001Z,3.20
2023-03-21T17:26:10.854Z,3.38
2023-03-21T17:28:38.775Z,3.20
2023-03-21T17:31:12.893Z,3.15
2023-03-21T17:33:42.542Z,3.42
2023-03-21T17:36:15.323Z,4.80
2023-03-21T17:38:43.805Z,5.63
2023-03-21T17:41:13.141Z,4.28
2023-03-21T17:43:41.112Z,3.65
2023-03-21T17:46:12.986Z,3.53
2023-03-21T17:48:42.602Z,3.10
2023-03-21T17:51:14.441Z,3.50
2023-03-21T17:53:42.396Z,3.47
2023-03-21T17:56:14.968Z,3.80
2023-03-21T17:58:43.076Z,3.97
2023-03-21T18:01:10.898Z,2.92
2023-03-21T18:03:38.747Z,3.95
2023-03-21T18:06:13.792Z,3.15
2023-03-21T18:08:42.312Z,4.03
2023-03-21T18:11:12.680Z,4.00
2023-03-21T18:13:40.433Z,4.22
2023-03-21T18:16:09.734Z,5.10
2023-03-21T18:18:38.060Z,4.07
2023-03-21T18:21:06.584Z,5.45
2023-03-21T18:23:35.950Z,5.20
2023-03-21T18:26:04.487Z,4.97
2023-03-21T18:28:32.334Z,4.75
2023-03-21T18:31:10.404Z,5.95
2023-03-21T18:33:40.273Z,5.10
2023-03-21T18:36:09.007Z,5.18
2023-03-21T18:38:38.479Z,5.28
2023-03-21T18:41:07.617Z,5.03
2023-03-21T18:46:24.330Z,4.90
2023-03-21T18:48:52.667Z,5.30
2023-03-21T18:51:21.774Z,6.55
2023-03-21T18:53:51.424Z,5.60
2023-03-21T18:57:06.011Z,6.25
2023-03-21T18:59:08.488Z,6.57
2023-03-21T19:01:36.794Z,6.93
2023-03-21T19:04:20.742Z,6.82
2023-03-21T19:06:51.189Z,6.35
2023-03-21T19:09:29.146Z,7.30
2023-03-21T19:11:59.323Z,6.82
2023-03-21T19:14:27.571Z,6.05
2023-03-21T19:17:38.358Z,6.35
2023-03-21T19:19:44.673Z,6.03
2023-03-21T19:22:12.749Z,6.60
2023-03-21T19:24:43.006Z,6.90
2023-03-21T19:27:12.052Z,6.75
2023-03-21T19:29:39.773Z,6.95
2023-03-21T19:32:07.718Z,6.30
2023-03-21T19:34:35.550Z,6.88
2023-03-21T19:37:03.369Z,7.35
2023-03-21T19:39:31.440Z,7.55
2023-03-21T19:42:15.082Z,7.32
2023-03-21T19:44:44.261Z,7.20
2023-03-21T19:47:12.499Z,7.15
2023-03-21T19:52:29.543Z,7.00
2023-03-21T19:54:57.307Z,7.03
2023-03-21T19:57:27.271Z,7.05
2023-03-21T19:59:55.258Z,7.30
2023-03-21T20:02:35.175Z,8.13
2023-03-21T20:05:03.697Z,7.72
2023-03-21T20:07:32.914Z,7.03
2023-03-21T20:10:01.399Z,7.70
2023-03-21T20:12:32.543Z,7.25
2023-03-21T20:15:12.020Z,7.03
2023-03-21T20:17:45.169Z,8.02
2023-03-21T20:20:15.098Z,7.80
2023-03-21T20:23:06.689Z,7.90
2023-03-21T20:25:32.661Z,9.27
2023-03-21T20:28:15.085Z,7.93
2023-03-21T20:30:49.206Z,9.05
2023-03-21T20:33:17.688Z,7.95
2023-03-21T20:36:32.841Z,7.65
2023-03-21T20:38:35.503Z,7.70
2023-03-21T20:41:05.497Z,9.02
2023-03-21T20:46:23.703Z,8.20
2023-03-21T20:48:51.848Z,8.45
2023-03-21T20:54:08.671Z,8.30
2023-03-21T20:56:36.537Z,7.60
2023-03-21T20:59:17.405Z,7.65
2023-03-21T21:01:52.003Z,7.22
2023-03-21T21:04:20.407Z,6.80
2023-03-21T21:06:48.625Z,7.00
2023-03-21T21:09:16.595Z,7.78
2023-03-21T21:14:35.403Z,7.40
2023-03-21T21:17:20.946Z,7.57
2023-03-21T21:19:50.849Z,7.53
2023-03-21T21:22:18.796Z,7.03
2023-03-21T21:24:46.827Z,7.85
2023-03-21T21:27:14.757Z,7.75
2023-03-21T21:29:46.655Z,7.35
2023-03-21T21:32:15.885Z,6.53
2023-03-21T21:34:43.611Z,7.50
2023-03-21T21:37:11.640Z,6.95
2023-03-21T21:39:40.201Z,7.68
2023-03-21T21:42:08.216Z,7.10
2023-03-21T21:44:37.284Z,7.45
2023-03-21T21:47:09.080Z,7.00
2023-03-21T21:49:37.318Z,7.35
2023-03-21T21:52:05.941Z,7.95
2023-03-21T21:54:34.984Z,7.60
2023-03-21T21:57:02.923Z,8.45
2023-03-21T21:59:30.827Z,7.65
2023-03-21T22:01:58.727Z,6.85
2023-03-21T22:04:28.676Z,6.93
2023-03-21T22:06:56.929Z,6.07
2023-03-21T22:09:24.646Z,5.68
2023-03-21T22:11:52.438Z,5.30
2023-03-21T22:14:20.576Z,5.40
2023-03-21T22:16:48.545Z,5.30
2023-03-21T22:19:16.412Z,5.38
2023-03-21T22:21:45.580Z,5.40
2023-03-21T22:24:13.340Z,4.82
2023-03-21T22:26:41.087Z,5.45
2023-03-21T22:29:10.512Z,4.72
2023-03-21T22:31:41.894Z,5.18
2023-03-21T22:34:09.974Z,5.18
2023-03-21T22:36:37.890Z,4.90
2023-03-21T22:39:07.221Z,5.15
2023-03-21T22:41:35.049Z,5.72
2023-03-21T22:44:02.810Z,5.80
2023-03-21T22:46:30.598Z,6.03
2023-03-21T22:48:59.140Z,5.88
2023-03-21T22:51:26.850Z,6.95
2023-03-21T22:53:54.683Z,7.05
2023-03-21T22:56:23.876Z,6.70
2023-03-21T22:58:51.645Z,6.82
2023-03-21T23:01:19.461Z,7.45
2023-03-21T23:03:47.388Z,7.43
2023-03-21T23:06:15.111Z,8.93
2023-03-21T23:08:42.813Z,8.23
2023-03-21T23:11:11.720Z,8.70
2023-03-21T23:13:42.286Z,9.52
2023-03-21T23:16:10.411Z,9.25
2023-03-21T23:18:38.613Z,8.05
2023-03-21T23:21:13.142Z,8.07
2023-03-21T23:23:43.839Z,7.70
2023-03-21T23:26:12.268Z,7.50
2023-03-21T23:28:41.708Z,6.45
2023-03-21T23:31:10.865Z,6.75
2023-03-21T23:33:38.671Z,6.47
2023-03-21T23:36:08.220Z,5.82
2023-03-21T23:38:36.115Z,7.68
2023-03-21T23:41:07.749Z,7.43
2023-03-21T23:43:35.992Z,7.45
2023-03-21T23:46:06.306Z,7.70
2023-03-21T23:48:34.170Z,8.70
2023-03-21T23:51:02.462Z,10.23
2023-03-21T23:53:30.164Z,9.48
2023-03-21T23:55:58.544Z,10.35
2023-03-21T23:58:28.248Z,9.73
